sensor_id;sensor_type;location;lat;lon;timestamp;P1;durP1;ratioP1;P2;durP2;ratioP2
12263;SDS011;6194;49.010;8.414;2023-03-30T00:00:53;9.77;;;2.95;;
12263;SDS011;6194;49.010;8.414;2023-03-30T00:03:18;7.13;;;3.22;;
12263;SDS011;6194;49.010;8.414;2023-03-30T00:05:46;9.65;;;2.80;;
12263;SDS011;6194;49.010;8.414;2023-03-30T00:08:12;7.95;;;3.00;;
12263;SDS011;6194;49.010;8.414;2023-03-30T00:10:38;7.43;;;3.15;;
12263;SDS011;6194;49.010;8.414;2023-03-30T00:13:05;8.27;;;3.13;;
12263;SDS011;6194;49.010;8.414;2023-03-30T00:15:32;10.10;;;3.15;;
12263;SDS011;6194;49.010;8.414;2023-03-30T00:17:58;7.82;;;3.20;;
12263;SDS011;6194;49.010;8.414;2023-03-30T00:20:25;6.25;;;3.00;;
12263;SDS011;6194;49.010;8.414;2023-03-30T00:22:51;8.80;;;3.05;;
12263;SDS011;6194;49.010;8.414;2023-03-30T00:25:17;7.57;;;2.60;;
12263;SDS011;6194;49.010;8.414;2023-03-30T00:27:43;7.57;;;2.90;;
12263;SDS011;6194;49.010;8.414;2023-03-30T00:30:10;9.82;;;3.17;;
12263;SDS011;6194;49.010;8.414;2023-03-30T00:32:40;15.27;;;3.33;;
12263;SDS011;6194;49.010;8.414;2023-03-30T00:35:06;9.63;;;2.88;;
12263;SDS011;6194;49.010;8.414;2023-03-30T00:37:32;7.20;;;2.95;;
12263;SDS011;6194;49.010;8.414;2023-03-30T00:40:01;6.82;;;2.95;;
12263;SDS011;6194;49.010;8.414;2023-03-30T00:42:28;8.32;;;2.90;;
12263;SDS011;6194;49.010;8.414;2023-03-30T00:47:32;10.65;;;3.40;;
12263;SDS011;6194;49.010;8.414;2023-03-30T00:50:02;11.40;;;3.05;;
12263;SDS011;6194;49.010;8.414;2023-03-30T00:52:29;5.80;;;2.92;;
12263;SDS011;6194;49.010;8.414;2023-03-30T00:54:57;7.50;;;2.53;;
12263;SDS011;6194;49.010;8.414;2023-03-30T00:57:23;10.18;;;3.40;;
12263;SDS011;6194;49.010;8.414;2023-03-30T00:59:51;9.48;;;3.03;;
12263;SDS011;6194;49.010;8.414;2023-03-30T01:02:18;10.88;;;2.80;;
12263;SDS011;6194;49.010;8.414;2023-03-30T01:04:45;10.98;;;3.08;;
12263;SDS011;6194;49.010;8.414;2023-03-30T01:07:12;13.50;;;3.33;;
12263;SDS011;6194;49.010;8.414;2023-03-30T01:09:40;7.90;;;3.13;;
12263;SDS011;6194;49.010;8.414;2023-03-30T01:12:06;6.53;;;2.90;;
12263;SDS011;6194;49.010;8.414;2023-03-30T01:14:32;7.47;;;2.85;;
12263;SDS011;6194;49.010;8.414;2023-03-30T01:32:53;11.65;;;3.45;;
12263;SDS011;6194;49.010;8.414;2023-03-30T01:35:52;10.10;;;2.95;;
12263;SDS011;6194;49.010;8.414;2023-03-30T01:41:36;10.55;;;3.22;;
12263;SDS011;6194;49.010;8.414;2023-03-30T01:44:31;13.05;;;3.35;;
12263;SDS011;6194;49.010;8.414;2023-03-30T01:47:16;8.00;;;3.10;;
12263;SDS011;6194;49.010;8.414;2023-03-30T01:52:41;11.93;;;3.28;;
12263;SDS011;6194;49.010;8.414;2023-03-30T01:55:18;12.27;;;3.35;;
12263;SDS011;6194;49.010;8.414;2023-03-30T01:57:50;10.30;;;3.00;;
12263;SDS011;6194;49.010;8.414;2023-03-30T02:00:37;8.88;;;3.40;;
12263;SDS011;6194;49.010;8.414;2023-03-30T02:03:06;9.55;;;3.47;;
12263;SDS011;6194;49.010;8.414;2023-03-30T02:05:37;12.15;;;3.88;;
12263;SDS011;6194;49.010;8.414;2023-03-30T02:08:06;7.55;;;3.03;;
12263;SDS011;6194;49.010;8.414;2023-03-30T02:10:35;9.77;;;3.33;;
12263;SDS011;6194;49.010;8.414;2023-03-30T02:13:02;10.88;;;3.22;;
12263;SDS011;6194;49.010;8.414;2023-03-30T02:15:33;11.88;;;3.65;;
12263;SDS011;6194;49.010;8.414;2023-03-30T02:18:02;13.88;;;3.72;;
12263;SDS011;6194;49.010;8.414;2023-03-30T02:20:28;13.00;;;3.60;;
12263;SDS011;6194;49.010;8.414;2023-03-30T02:22:55;11.30;;;3.75;;
12263;SDS011;6194;49.010;8.414;2023-03-30T02:25:21;13.25;;;4.18;;
12263;SDS011;6194;49.010;8.414;2023-03-30T02:27:47;12.50;;;3.25;;
12263;SDS011;6194;49.010;8.414;2023-03-30T02:30:13;14.15;;;3.50;;
12263;SDS011;6194;49.010;8.414;2023-03-30T02:32:41;13.43;;;3.70;;
12263;SDS011;6194;49.010;8.414;2023-03-30T02:49:11;13.40;;;4.00;;
12263;SDS011;6194;49.010;8.414;2023-03-30T03:00:22;12.93;;;3.73;;
12263;SDS011;6194;49.010;8.414;2023-03-30T03:03:25;16.07;;;4.23;;
12263;SDS011;6194;49.010;8.414;2023-03-30T03:05:56;16.23;;;4.30;;
12263;SDS011;6194;49.010;8.414;2023-03-30T03:08:27;15.83;;;4.33;;
12263;SDS011;6194;49.010;8.414;2023-03-30T03:10:58;11.73;;;3.60;;
12263;SDS011;6194;49.010;8.414;2023-03-30T03:13:24;13.37;;;3.80;;
12263;SDS011;6194;49.010;8.414;2023-03-30T03:15:49;14.23;;;4.20;;
12263;SDS011;6194;49.010;8.414;2023-03-30T03:18:20;16.33;;;4.53;;
12263;SDS011;6194;49.010;8.414;2023-03-30T03:20:46;11.83;;;4.27;;
12263;SDS011;6194;49.010;8.414;2023-03-30T03:23:11;14.80;;;4.63;;
12263;SDS011;6194;49.010;8.414;2023-03-30T03:25:37;15.10;;;4.37;;
12263;SDS011;6194;49.010;8.414;2023-03-30T03:28:02;11.33;;;4.10;;
12263;SDS011;6194;49.010;8.414;2023-03-30T03:30:28;15.93;;;3.93;;
12263;SDS011;6194;49.010;8.414;2023-03-30T03:32:53;16.10;;;4.20;;
12263;SDS011;6194;49.010;8.414;2023-03-30T03:35:19;18.70;;;4.37;;
12263;SDS011;6194;49.010;8.414;2023-03-30T03:37:45;16.00;;;3.93;;
12263;SDS011;6194;49.010;8.414;2023-03-30T03:40:11;11.57;;;4.33;;
12263;SDS011;6194;49.010;8.414;2023-03-30T03:42:37;12.90;;;4.47;;
12263;SDS011;6194;49.010;8.414;2023-03-30T03:45:02;17.07;;;4.43;;
12263;SDS011;6194;49.010;8.414;2023-03-30T03:47:30;11.63;;;4.23;;
12263;SDS011;6194;49.010;8.414;2023-03-30T03:49:56;12.10;;;4.17;;
12263;SDS011;6194;49.010;8.414;2023-03-30T03:52:21;11.07;;;3.93;;
12263;SDS011;6194;49.010;8.414;2023-03-30T03:54:47;13.20;;;3.90;;
12263;SDS011;6194;49.010;8.414;2023-03-30T03:57:13;13.63;;;4.07;;
12263;SDS011;6194;49.010;8.414;2023-03-30T03:59:38;15.33;;;3.93;;
12263;SDS011;6194;49.010;8.414;2023-03-30T04:02:04;12.37;;;4.00;;
12263;SDS011;6194;49.010;8.414;2023-03-30T04:04:30;13.10;;;4.03;;
12263;SDS011;6194;49.010;8.414;2023-03-30T04:06:56;17.17;;;4.30;;
12263;SDS011;6194;49.010;8.414;2023-03-30T04:09:21;13.20;;;4.00;;
12263;SDS011;6194;49.010;8.414;2023-03-30T04:11:47;19.07;;;4.23;;
12263;SDS011;6194;49.010;8.414;2023-03-30T04:14:13;14.33;;;4.67;;
12263;SDS011;6194;49.010;8.414;2023-03-30T04:16:39;13.90;;;5.10;;
12263;SDS011;6194;49.010;8.414;2023-03-30T04:19:04;13.27;;;5.03;;
12263;SDS011;6194;49.010;8.414;2023-03-30T04:21:32;15.33;;;4.00;;
12263;SDS011;6194;49.010;8.414;2023-03-30T04:23:58;15.67;;;4.40;;
12263;SDS011;6194;49.010;8.414;2023-03-30T04:26:24;11.33;;;4.10;;
12263;SDS011;6194;49.010;8.414;2023-03-30T04:28:52;17.43;;;4.60;;
12263;SDS011;6194;49.010;8.414;2023-03-30T04:31:17;11.20;;;4.40;;
12263;SDS011;6194;49.010;8.414;2023-03-30T04:33:43;19.47;;;4.93;;
12263;SDS011;6194;49.010;8.414;2023-03-30T04:36:14;15.10;;;4.70;;
12263;SDS011;6194;49.010;8.414;2023-03-30T04:38:45;11.23;;;4.60;;
12263;SDS011;6194;49.010;8.414;2023-03-30T04:41:28;12.37;;;4.67;;
12263;SDS011;6194;49.010;8.414;2023-03-30T04:44:02;15.10;;;4.90;;
12263;SDS011;6194;49.010;8.414;2023-03-30T04:46:28;12.23;;;4.53;;
12263;SDS011;6194;49.010;8.414;2023-03-30T04:48:54;16.10;;;4.40;;
12263;SDS011;6194;49.010;8.414;2023-03-30T04:51:20;14.57;;;4.13;;
12263;SDS011;6194;49.010;8.414;2023-03-30T04:53:46;10.57;;;4.53;;
12263;SDS011;6194;49.010;8.414;2023-03-30T04:56:12;12.40;;;5.03;;
12263;SDS011;6194;49.010;8.414;2023-03-30T04:58:37;12.17;;;4.70;;
12263;SDS011;6194;49.010;8.414;2023-03-30T05:01:03;13.07;;;4.90;;
12263;SDS011;6194;49.010;8.414;2023-03-30T05:03:29;13.23;;;4.70;;
12263;SDS011;6194;49.010;8.414;2023-03-30T05:05:55;15.60;;;5.27;;
12263;SDS011;6194;49.010;8.414;2023-03-30T05:08:21;12.90;;;4.77;;
12263;SDS011;6194;49.010;8.414;2023-03-30T05:10:47;15.17;;;5.23;;
12263;SDS011;6194;49.010;8.414;2023-03-30T05:13:13;18.33;;;4.70;;
12263;SDS011;6194;49.010;8.414;2023-03-30T05:15:39;15.13;;;5.20;;
12263;SDS011;6194;49.010;8.414;2023-03-30T05:18:05;15.53;;;4.90;;
12263;SDS011;6194;49.010;8.414;2023-03-30T05:20:30;17.80;;;4.57;;
12263;SDS011;6194;49.010;8.414;2023-03-30T05:22:56;15.47;;;4.83;;
12263;SDS011;6194;49.010;8.414;2023-03-30T05:25:22;21.23;;;5.10;;
12263;SDS011;6194;49.010;8.414;2023-03-30T05:27:47;20.03;;;4.70;;
12263;SDS011;6194;49.010;8.414;2023-03-30T05:30:13;13.63;;;5.47;;
12263;SDS011;6194;49.010;8.414;2023-03-30T05:32:39;13.37;;;4.53;;
12263;SDS011;6194;49.010;8.414;2023-03-30T05:35:05;11.47;;;4.90;;
12263;SDS011;6194;49.010;8.414;2023-03-30T05:37:31;14.07;;;4.60;;
12263;SDS011;6194;49.010;8.414;2023-03-30T05:39:57;13.27;;;5.20;;
12263;SDS011;6194;49.010;8.414;2023-03-30T05:42:23;13.53;;;4.67;;
12263;SDS011;6194;49.010;8.414;2023-03-30T05:44:49;16.87;;;5.43;;
12263;SDS011;6194;49.010;8.414;2023-03-30T05:47:14;17.63;;;5.50;;
12263;SDS011;6194;49.010;8.414;2023-03-30T05:49:40;21.33;;;5.63;;
12263;SDS011;6194;49.010;8.414;2023-03-30T05:52:06;15.93;;;5.80;;
12263;SDS011;6194;49.010;8.414;2023-03-30T05:54:32;20.87;;;5.93;;
12263;SDS011;6194;49.010;8.414;2023-03-30T05:56:58;12.03;;;4.80;;
12263;SDS011;6194;49.010;8.414;2023-03-30T05:59:23;16.80;;;5.93;;
12263;SDS011;6194;49.010;8.414;2023-03-30T06:01:49;13.33;;;5.60;;
12263;SDS011;6194;49.010;8.414;2023-03-30T06:04:15;15.23;;;5.30;;
12263;SDS011;6194;49.010;8.414;2023-03-30T06:06:41;18.00;;;5.90;;
12263;SDS011;6194;49.010;8.414;2023-03-30T06:09:07;16.13;;;5.90;;
12263;SDS011;6194;49.010;8.414;2023-03-30T06:11:32;16.10;;;5.37;;
12263;SDS011;6194;49.010;8.414;2023-03-30T06:13:58;16.77;;;5.50;;
12263;SDS011;6194;49.010;8.414;2023-03-30T06:16:24;16.50;;;5.20;;
12263;SDS011;6194;49.010;8.414;2023-03-30T06:18:50;16.87;;;5.20;;
12263;SDS011;6194;49.010;8.414;2023-03-30T06:21:16;16.90;;;5.87;;
12263;SDS011;6194;49.010;8.414;2023-03-30T06:23:41;18.47;;;5.73;;
12263;SDS011;6194;49.010;8.414;2023-03-30T06:26:07;15.67;;;5.70;;
12263;SDS011;6194;49.010;8.414;2023-03-30T06:28:33;17.73;;;6.07;;
12263;SDS011;6194;49.010;8.414;2023-03-30T06:30:59;13.07;;;5.53;;
12263;SDS011;6194;49.010;8.414;2023-03-30T06:33:27;13.97;;;5.30;;
12263;SDS011;6194;49.010;8.414;2023-03-30T06:35:54;16.63;;;5.97;;
12263;SDS011;6194;49.010;8.414;2023-03-30T06:38:20;16.73;;;5.77;;
12263;SDS011;6194;49.010;8.414;2023-03-30T06:40:47;18.93;;;6.20;;
12263;SDS011;6194;49.010;8.414;2023-03-30T06:43:17;20.93;;;6.13;;
12263;SDS011;6194;49.010;8.414;2023-03-30T06:45:52;18.97;;;6.27;;
12263;SDS011;6194;49.010;8.414;2023-03-30T06:48:19;19.83;;;5.97;;
12263;SDS011;6194;49.010;8.414;2023-03-30T06:50:48;13.73;;;6.20;;
12263;SDS011;6194;49.010;8.414;2023-03-30T06:53:14;15.10;;;7.03;;
12263;SDS011;6194;49.010;8.414;2023-03-30T06:55:40;20.37;;;6.13;;
12263;SDS011;6194;49.010;8.414;2023-03-30T06:58:06;15.57;;;5.83;;
12263;SDS011;6194;49.010;8.414;2023-03-30T07:00:31;18.27;;;6.27;;
12263;SDS011;6194;49.010;8.414;2023-03-30T07:02:57;16.77;;;6.03;;
12263;SDS011;6194;49.010;8.414;2023-03-30T07:05:23;15.83;;;6.03;;
12263;SDS011;6194;49.010;8.414;2023-03-30T07:07:49;13.20;;;6.00;;
12263;SDS011;6194;49.010;8.414;2023-03-30T07:10:16;16.40;;;6.03;;
12263;SDS011;6194;49.010;8.414;2023-03-30T07:12:42;15.60;;;6.60;;
12263;SDS011;6194;49.010;8.414;2023-03-30T07:15:08;12.87;;;6.23;;
12263;SDS011;6194;49.010;8.414;2023-03-30T07:17:35;19.63;;;6.60;;
12263;SDS011;6194;49.010;8.414;2023-03-30T07:20:02;14.37;;;6.17;;
12263;SDS011;6194;49.010;8.414;2023-03-30T07:22:29;15.67;;;5.70;;
12263;SDS011;6194;49.010;8.414;2023-03-30T07:24:55;18.70;;;6.33;;
12263;SDS011;6194;49.010;8.414;2023-03-30T07:27:21;10.50;;;6.13;;
12263;SDS011;6194;49.010;8.414;2023-03-30T07:29:48;19.20;;;6.20;;
12263;SDS011;6194;49.010;8.414;2023-03-30T07:32:15;17.80;;;6.17;;
12263;SDS011;6194;49.010;8.414;2023-03-30T07:34:41;15.50;;;6.67;;
12263;SDS011;6194;49.010;8.414;2023-03-30T07:37:07;16.80;;;6.70;;
12263;SDS011;6194;49.010;8.414;2023-03-30T07:39:33;19.07;;;6.60;;
12263;SDS011;6194;49.010;8.414;2023-03-30T07:41:59;19.33;;;5.90;;
12263;SDS011;6194;49.010;8.414;2023-03-30T07:44:24;13.77;;;5.70;;
12263;SDS011;6194;49.010;8.414;2023-03-30T07:46:53;13.73;;;5.93;;
12263;SDS011;6194;49.010;8.414;2023-03-30T07:49:19;15.00;;;5.80;;
12263;SDS011;6194;49.010;8.414;2023-03-30T07:51:45;12.60;;;5.53;;
12263;SDS011;6194;49.010;8.414;2023-03-30T07:54:11;13.70;;;5.83;;
12263;SDS011;6194;49.010;8.414;2023-03-30T07:56:37;9.97;;;5.33;;
12263;SDS011;6194;49.010;8.414;2023-03-30T07:59:05;13.73;;;6.07;;
12263;SDS011;6194;49.010;8.414;2023-03-30T08:01:32;17.53;;;5.80;;
12263;SDS011;6194;49.010;8.414;2023-03-30T08:03:58;18.03;;;6.00;;
12263;SDS011;6194;49.010;8.414;2023-03-30T08:06:25;11.03;;;5.40;;
12263;SDS011;6194;49.010;8.414;2023-03-30T08:08:51;13.07;;;5.60;;
12263;SDS011;6194;49.010;8.414;2023-03-30T08:11:16;13.57;;;5.30;;
12263;SDS011;6194;49.010;8.414;2023-03-30T08:13:43;12.33;;;5.10;;
12263;SDS011;6194;49.010;8.414;2023-03-30T08:16:09;11.23;;;5.10;;
12263;SDS011;6194;49.010;8.414;2023-03-30T08:18:35;12.57;;;5.33;;
12263;SDS011;6194;49.010;8.414;2023-03-30T08:21:01;11.83;;;4.97;;
12263;SDS011;6194;49.010;8.414;2023-03-30T08:23:27;13.07;;;5.07;;
12263;SDS011;6194;49.010;8.414;2023-03-30T08:25:56;9.10;;;4.50;;
12263;SDS011;6194;49.010;8.414;2023-03-30T08:28:22;9.97;;;4.80;;
12263;SDS011;6194;49.010;8.414;2023-03-30T08:30:48;8.27;;;5.00;;
12263;SDS011;6194;49.010;8.414;2023-03-30T08:33:13;7.23;;;4.10;;
12263;SDS011;6194;49.010;8.414;2023-03-30T08:35:42;8.48;;;4.30;;
12263;SDS011;6194;49.010;8.414;2023-03-30T08:38:08;9.60;;;4.20;;
12263;SDS011;6194;49.010;8.414;2023-03-30T08:40:37;8.18;;;4.30;;
12263;SDS011;6194;49.010;8.414;2023-03-30T08:45:45;9.20;;;3.70;;
12263;SDS011;6194;49.010;8.414;2023-03-30T08:48:21;7.65;;;3.85;;
12263;SDS011;6194;49.010;8.414;2023-03-30T08:53:20;5.75;;;2.70;;
12263;SDS011;6194;49.010;8.414;2023-03-30T08:55:57;6.57;;;2.75;;
12263;SDS011;6194;49.010;8.414;2023-03-30T09:07:30;5.57;;;2.70;;
12263;SDS011;6194;49.010;8.414;2023-03-30T09:10:17;4.88;;;2.78;;
12263;SDS011;6194;49.010;8.414;2023-03-30T09:12:47;4.25;;;3.20;;
12263;SDS011;6194;49.010;8.414;2023-03-30T09:15:19;4.45;;;2.85;;
12263;SDS011;6194;49.010;8.414;2023-03-30T09:18:16;5.30;;;3.10;;
12263;SDS011;6194;49.010;8.414;2023-03-30T09:20:49;6.75;;;3.60;;
12263;SDS011;6194;49.010;8.414;2023-03-30T09:23:16;7.60;;;3.65;;
12263;SDS011;6194;49.010;8.414;2023-03-30T09:28:26;7.85;;;4.05;;
12263;SDS011;6194;49.010;8.414;2023-03-30T09:31:16;10.13;;;3.90;;
12263;SDS011;6194;49.010;8.414;2023-03-30T09:39:18;7.90;;;3.75;;
12263;SDS011;6194;49.010;8.414;2023-03-30T09:44:21;7.35;;;3.58;;
12263;SDS011;6194;49.010;8.414;2023-03-30T09:46:56;6.63;;;4.33;;
12263;SDS011;6194;49.010;8.414;2023-03-30T09:49:25;9.88;;;4.03;;
12263;SDS011;6194;49.010;8.414;2023-03-30T09:52:00;9.30;;;3.87;;
12263;SDS011;6194;49.010;8.414;2023-03-30T09:54:35;8.40;;;3.70;;
12263;SDS011;6194;49.010;8.414;2023-03-30T09:57:02;9.17;;;3.83;;
12263;SDS011;6194;49.010;8.414;2023-03-30T09:59:30;4.97;;;3.77;;
12263;SDS011;6194;49.010;8.414;2023-03-30T10:02:08;8.23;;;3.90;;
12263;SDS011;6194;49.010;8.414;2023-03-30T10:04:37;9.68;;;3.88;;
12263;SDS011;6194;49.010;8.414;2023-03-30T10:07:25;6.55;;;3.80;;
12263;SDS011;6194;49.010;8.414;2023-03-30T10:12:39;6.43;;;3.67;;
12263;SDS011;6194;49.010;8.414;2023-03-30T10:15:05;7.40;;;3.90;;
12263;SDS011;6194;49.010;8.414;2023-03-30T10:17:38;5.65;;;3.35;;
12263;SDS011;6194;49.010;8.414;2023-03-30T10:25:23;7.57;;;3.55;;
12263;SDS011;6194;49.010;8.414;2023-03-30T10:27:53;10.20;;;4.07;;
12263;SDS011;6194;49.010;8.414;2023-03-30T10:30:22;7.05;;;3.20;;
12263;SDS011;6194;49.010;8.414;2023-03-30T10:32:50;6.32;;;3.30;;
12263;SDS011;6194;49.010;8.414;2023-03-30T10:35:18;7.13;;;3.30;;
12263;SDS011;6194;49.010;8.414;2023-03-30T10:37:48;5.53;;;3.55;;
12263;SDS011;6194;49.010;8.414;2023-03-30T10:40:17;6.75;;;3.20;;
12263;SDS011;6194;49.010;8.414;2023-03-30T10:42:49;6.63;;;4.00;;
12263;SDS011;6194;49.010;8.414;2023-03-30T10:45:20;5.25;;;3.10;;
12263;SDS011;6194;49.010;8.414;2023-03-30T10:50:47;5.50;;;3.53;;
12263;SDS011;6194;49.010;8.414;2023-03-30T10:56:27;5.22;;;3.20;;
12263;SDS011;6194;49.010;8.414;2023-03-30T11:07:08;5.75;;;3.13;;
12263;SDS011;6194;49.010;8.414;2023-03-30T11:09:47;4.95;;;3.03;;
12263;SDS011;6194;49.010;8.414;2023-03-30T11:12:18;6.18;;;3.30;;
12263;SDS011;6194;49.010;8.414;2023-03-30T11:17:31;4.60;;;3.22;;
12263;SDS011;6194;49.010;8.414;2023-03-30T11:20:09;4.32;;;3.25;;
12263;SDS011;6194;49.010;8.414;2023-03-30T11:22:48;5.32;;;3.30;;
12263;SDS011;6194;49.010;8.414;2023-03-30T11:25:23;5.28;;;2.97;;
12263;SDS011;6194;49.010;8.414;2023-03-30T11:30:47;6.97;;;3.75;;
12263;SDS011;6194;49.010;8.414;2023-03-30T11:36:03;5.38;;;3.38;;
12263;SDS011;6194;49.010;8.414;2023-03-30T11:41:21;8.00;;;3.00;;
12263;SDS011;6194;49.010;8.414;2023-03-30T11:43:55;7.43;;;3.47;;
12263;SDS011;6194;49.010;8.414;2023-03-30T11:46:26;7.53;;;3.67;;
12263;SDS011;6194;49.010;8.414;2023-03-30T11:54:52;6.30;;;3.50;;
12263;SDS011;6194;49.010;8.414;2023-03-30T11:57:41;7.18;;;3.60;;
12263;SDS011;6194;49.010;8.414;2023-03-30T12:00:30;5.72;;;3.63;;
12263;SDS011;6194;49.010;8.414;2023-03-30T12:05:50;8.35;;;3.45;;
12263;SDS011;6194;49.010;8.414;2023-03-30T12:14:13;7.63;;;3.78;;
12263;SDS011;6194;49.010;8.414;2023-03-30T12:16:53;6.85;;;3.60;;
12263;SDS011;6194;49.010;8.414;2023-03-30T12:19:26;6.60;;;3.75;;
12263;SDS011;6194;49.010;8.414;2023-03-30T12:22:24;8.55;;;4.28;;
12263;SDS011;6194;49.010;8.414;2023-03-30T12:27:35;7.20;;;4.07;;
12263;SDS011;6194;49.010;8.414;2023-03-30T12:30:22;8.20;;;4.80;;
12263;SDS011;6194;49.010;8.414;2023-03-30T12:33:12;11.07;;;5.07;;
12263;SDS011;6194;49.010;8.414;2023-03-30T12:38:25;4.97;;;3.20;;
12263;SDS011;6194;49.010;8.414;2023-03-30T12:41:09;8.93;;;3.57;;
12263;SDS011;6194;49.010;8.414;2023-03-30T12:47:31;6.43;;;4.47;;
12263;SDS011;6194;49.010;8.414;2023-03-30T12:52:14;9.83;;;5.20;;
12263;SDS011;6194;49.010;8.414;2023-03-30T13:05:40;9.37;;;4.20;;
12263;SDS011;6194;49.010;8.414;2023-03-30T13:08:09;7.83;;;4.03;;
12263;SDS011;6194;49.010;8.414;2023-03-30T13:13:45;11.40;;;4.27;;
12263;SDS011;6194;49.010;8.414;2023-03-30T13:16:12;7.43;;;3.70;;
12263;SDS011;6194;49.010;8.414;2023-03-30T13:18:39;5.73;;;3.80;;
12263;SDS011;6194;49.010;8.414;2023-03-30T13:21:21;6.63;;;3.90;;
12263;SDS011;6194;49.010;8.414;2023-03-30T13:23:58;7.25;;;3.50;;
12263;SDS011;6194;49.010;8.414;2023-03-30T13:26:26;6.28;;;3.28;;
12263;SDS011;6194;49.010;8.414;2023-03-30T13:29:03;5.70;;;3.35;;
12263;SDS011;6194;49.010;8.414;2023-03-30T13:31:35;5.25;;;2.80;;
12263;SDS011;6194;49.010;8.414;2023-03-30T13:37:06;4.93;;;2.72;;
12263;SDS011;6194;49.010;8.414;2023-03-30T13:40:32;4.32;;;3.10;;
12263;SDS011;6194;49.010;8.414;2023-03-30T13:43:01;6.95;;;3.00;;
12263;SDS011;6194;49.010;8.414;2023-03-30T13:51:35;3.70;;;2.40;;
12263;SDS011;6194;49.010;8.414;2023-03-30T13:54:02;2.50;;;2.10;;
12263;SDS011;6194;49.010;8.414;2023-03-30T13:56:33;2.95;;;2.13;;
12263;SDS011;6194;49.010;8.414;2023-03-30T13:59:06;3.05;;;1.98;;
12263;SDS011;6194;49.010;8.414;2023-03-30T14:01:37;3.42;;;2.08;;
12263;SDS011;6194;49.010;8.414;2023-03-30T14:04:05;4.65;;;2.30;;
12263;SDS011;6194;49.010;8.414;2023-03-30T14:06:36;4.50;;;2.00;;
12263;SDS011;6194;49.010;8.414;2023-03-30T14:09:10;4.05;;;2.20;;
12263;SDS011;6194;49.010;8.414;2023-03-30T14:11:45;4.50;;;2.20;;
12263;SDS011;6194;49.010;8.414;2023-03-30T14:16:49;2.38;;;1.77;;
12263;SDS011;6194;49.010;8.414;2023-03-30T14:21:46;2.95;;;1.80;;
12263;SDS011;6194;49.010;8.414;2023-03-30T14:24:14;3.38;;;1.98;;
12263;SDS011;6194;49.010;8.414;2023-03-30T14:26:42;3.95;;;2.13;;
12263;SDS011;6194;49.010;8.414;2023-03-30T14:29:14;3.70;;;1.80;;
12263;SDS011;6194;49.010;8.414;2023-03-30T14:31:41;3.90;;;2.03;;
12263;SDS011;6194;49.010;8.414;2023-03-30T14:36:53;2.97;;;1.90;;
12263;SDS011;6194;49.010;8.414;2023-03-30T14:39:22;4.47;;;2.30;;
12263;SDS011;6194;49.010;8.414;2023-03-30T14:41:48;2.72;;;2.00;;
12263;SDS011;6194;49.010;8.414;2023-03-30T14:44:15;3.72;;;2.20;;
12263;SDS011;6194;49.010;8.414;2023-03-30T14:46:44;4.88;;;2.58;;
12263;SDS011;6194;49.010;8.414;2023-03-30T14:51:41;3.95;;;2.35;;
12263;SDS011;6194;49.010;8.414;2023-03-30T14:54:11;3.72;;;2.08;;
12263;SDS011;6194;49.010;8.414;2023-03-30T14:56:39;4.00;;;1.98;;
12263;SDS011;6194;49.010;8.414;2023-03-30T14:59:06;4.68;;;2.00;;
12263;SDS011;6194;49.010;8.414;2023-03-30T15:01:35;4.72;;;1.75;;
12263;SDS011;6194;49.010;8.414;2023-03-30T15:04:05;3.72;;;2.03;;
12263;SDS011;6194;49.010;8.414;2023-03-30T15:06:35;3.72;;;1.90;;
12263;SDS011;6194;49.010;8.414;2023-03-30T15:09:01;3.17;;;2.08;;
12263;SDS011;6194;49.010;8.414;2023-03-30T15:11:30;2.80;;;1.80;;
12263;SDS011;6194;49.010;8.414;2023-03-30T15:14:00;3.35;;;1.80;;
12263;SDS011;6194;49.010;8.414;2023-03-30T15:16:31;2.95;;;1.85;;
12263;SDS011;6194;49.010;8.414;2023-03-30T15:19:04;3.70;;;2.08;;
12263;SDS011;6194;49.010;8.414;2023-03-30T15:21:50;3.55;;;2.20;;
12263;SDS011;6194;49.010;8.414;2023-03-30T15:24:19;3.08;;;2.60;;
12263;SDS011;6194;49.010;8.414;2023-03-30T15:26:53;3.67;;;2.17;;
12263;SDS011;6194;49.010;8.414;2023-03-30T15:29:21;5.07;;;2.17;;
12263;SDS011;6194;49.010;8.414;2023-03-30T15:31:57;3.15;;;2.15;;
12263;SDS011;6194;49.010;8.414;2023-03-30T15:34:55;3.58;;;2.00;;
12263;SDS011;6194;49.010;8.414;2023-03-30T15:37:49;3.47;;;1.73;;
12263;SDS011;6194;49.010;8.414;2023-03-30T15:40:25;4.45;;;2.22;;
12263;SDS011;6194;49.010;8.414;2023-03-30T15:45:43;5.47;;;2.00;;
12263;SDS011;6194;49.010;8.414;2023-03-30T15:48:20;4.00;;;2.33;;
12263;SDS011;6194;49.010;8.414;2023-03-30T15:50:56;2.35;;;2.00;;
12263;SDS011;6194;49.010;8.414;2023-03-30T15:53:30;4.75;;;1.90;;
12263;SDS011;6194;49.010;8.414;2023-03-30T15:55:58;4.45;;;2.22;;
12263;SDS011;6194;49.010;8.414;2023-03-30T15:58:25;3.10;;;2.00;;
12263;SDS011;6194;49.010;8.414;2023-03-30T16:00:52;3.55;;;1.90;;
12263;SDS011;6194;49.010;8.414;2023-03-30T16:03:35;2.08;;;1.63;;
12263;SDS011;6194;49.010;8.414;2023-03-30T16:06:06;4.20;;;2.20;;
12263;SDS011;6194;49.010;8.414;2023-03-30T16:08:36;4.05;;;2.17;;
12263;SDS011;6194;49.010;8.414;2023-03-30T16:11:06;3.90;;;2.63;;
12263;SDS011;6194;49.010;8.414;2023-03-30T16:13:32;3.92;;;2.17;;
12263;SDS011;6194;49.010;8.414;2023-03-30T16:16:02;3.88;;;2.03;;
12263;SDS011;6194;49.010;8.414;2023-03-30T16:18:28;4.47;;;2.10;;
12263;SDS011;6194;49.010;8.414;2023-03-30T16:20:54;5.13;;;1.98;;
12263;SDS011;6194;49.010;8.414;2023-03-30T16:23:22;5.20;;;2.33;;
12263;SDS011;6194;49.010;8.414;2023-03-30T16:25:48;4.40;;;2.40;;
12263;SDS011;6194;49.010;8.414;2023-03-30T16:28:14;4.05;;;2.03;;
12263;SDS011;6194;49.010;8.414;2023-03-30T16:30:41;5.97;;;2.63;;
12263;SDS011;6194;49.010;8.414;2023-03-30T16:33:09;3.58;;;2.35;;
12263;SDS011;6194;49.010;8.414;2023-03-30T16:35:35;3.22;;;2.33;;
12263;SDS011;6194;49.010;8.414;2023-03-30T16:38:01;3.22;;;2.10;;
12263;SDS011;6194;49.010;8.414;2023-03-30T16:40:37;2.45;;;2.05;;
12263;SDS011;6194;49.010;8.414;2023-03-30T16:43:04;4.75;;;2.10;;
12263;SDS011;6194;49.010;8.414;2023-03-30T16:45:30;4.82;;;2.40;;
12263;SDS011;6194;49.010;8.414;2023-03-30T16:47:56;3.70;;;2.13;;
12263;SDS011;6194;49.010;8.414;2023-03-30T16:50:24;5.95;;;2.25;;
12263;SDS011;6194;49.010;8.414;2023-03-30T16:52:57;5.20;;;2.40;;
12263;SDS011;6194;49.010;8.414;2023-03-30T16:55:22;5.40;;;2.22;;
12263;SDS011;6194;49.010;8.414;2023-03-30T16:57:48;3.50;;;1.90;;
12263;SDS011;6194;49.010;8.414;2023-03-30T17:00:15;4.75;;;2.25;;
12263;SDS011;6194;49.010;8.414;2023-03-30T17:02:42;4.18;;;2.30;;
12263;SDS011;6194;49.010;8.414;2023-03-30T17:05:08;2.80;;;2.13;;
12263;SDS011;6194;49.010;8.414;2023-03-30T17:07:34;2.95;;;2.13;;
12263;SDS011;6194;49.010;8.414;2023-03-30T17:10:05;4.05;;;2.53;;
12263;SDS011;6194;49.010;8.414;2023-03-30T17:12:38;4.93;;;2.45;;
12263;SDS011;6194;49.010;8.414;2023-03-30T17:15:05;6.95;;;2.75;;
12263;SDS011;6194;49.010;8.414;2023-03-30T17:17:32;4.55;;;2.65;;
12263;SDS011;6194;49.010;8.414;2023-03-30T17:19:58;7.20;;;2.50;;
12263;SDS011;6194;49.010;8.414;2023-03-30T17:22:38;4.28;;;2.65;;
12263;SDS011;6194;49.010;8.414;2023-03-30T17:25:04;4.55;;;2.38;;
12263;SDS011;6194;49.010;8.414;2023-03-30T17:27:30;5.57;;;2.30;;
12263;SDS011;6194;49.010;8.414;2023-03-30T17:29:55;3.78;;;2.13;;
12263;SDS011;6194;49.010;8.414;2023-03-30T17:32:21;5.13;;;3.05;;
12263;SDS011;6194;49.010;8.414;2023-03-30T17:34:47;4.93;;;2.22;;
12263;SDS011;6194;49.010;8.414;2023-03-30T17:37:12;3.95;;;2.15;;
12263;SDS011;6194;49.010;8.414;2023-03-30T17:39:38;4.72;;;2.50;;
12263;SDS011;6194;49.010;8.414;2023-03-30T17:42:03;4.95;;;2.40;;
12263;SDS011;6194;49.010;8.414;2023-03-30T17:44:29;5.40;;;2.45;;
12263;SDS011;6194;49.010;8.414;2023-03-30T17:46:55;5.75;;;2.60;;
12263;SDS011;6194;49.010;8.414;2023-03-30T17:49:20;4.07;;;2.38;;
12263;SDS011;6194;49.010;8.414;2023-03-30T17:51:46;4.38;;;2.72;;
12263;SDS011;6194;49.010;8.414;2023-03-30T17:54:11;4.43;;;2.55;;
12263;SDS011;6194;49.010;8.414;2023-03-30T17:56:37;3.72;;;2.38;;